Time;durP1;ratioP1;P1;durP2;ratioP2;P2;SDS_P1;SDS_P2;PMS_P1;PMS_P2;Temp;Humidity;BMP_temperature;BMP_pressure;BME280_temperature;BME280_humidity;BME280_pressure;Samples;Min_cycle;Max_cycle;Signal;HPM_P1;HPM_P2
2022/06/08 04:02:30;;;;;;;7.53;4.93;;;12.40;96.30;;;;;;5039251;23;20477;-75
2022/06/08 04:04:55;;;;;;;5.70;5.00;;;13.10;96.30;;;;;;4993163;28;20830;-75
2022/06/08 04:07:21;;;;;;;4.90;4.40;;;13.80;96.30;;;;;;4976152;28;20220;-76
2022/06/08 04:09:46;;;;;;;4.87;4.40;;;14.60;96.30;;;;;;4992931;28;20668;-75
2022/06/08 04:12:12;;;;;;;4.93;4.43;;;15.30;96.30;;;;;;4976702;28;20202;-75
2022/06/08 04:14:38;;;;;;;4.77;4.33;;;16.00;96.30;;;;;;4974680;28;20202;-75
2022/06/08 04:17:04;;;;;;;7.83;4.10;;;16.30;96.30;;;;;;4975073;28;20186;-76
2022/06/08 04:19:30;;;;;;;4.60;3.90;;;16.60;96.30;;;;;;4975062;28;20271;-76
2022/06/08 04:21:56;;;;;;;7.30;3.90;;;16.90;96.30;;;;;;4974121;28;20264;-76
2022/06/08 04:24:23;;;;;;;3.90;3.60;;;17.50;96.30;;;;;;4973689;28;20905;-75
2022/06/08 04:26:49;;;;;;;4.37;3.30;;;17.80;96.30;;;;;;4974128;28;20186;-75
2022/06/08 04:29:15;;;;;;;9.23;4.37;;;18.10;96.30;;;;;;4973201;28;20826;-76
2022/06/08 04:31:41;;;;;;;7.70;4.43;;;18.70;96.30;;;;;;4973679;28;21036;-77
2022/06/08 04:34:09;;;;;;;4.50;4.10;;;19.20;96.30;;;;;;4973955;28;20214;-77
2022/06/08 04:36:35;;;;;;;3.73;3.43;;;19.10;96.30;;;;;;4973853;28;21057;-77
2022/06/08 04:39:01;;;;;;;6.00;4.00;;;19.60;96.30;;;;;;4973150;28;20417;-75
2022/06/08 04:41:27;;;;;;;5.67;3.50;;;20.00;96.30;;;;;;4973544;28;20445;-75
2022/06/08 04:43:53;;;;;;;3.70;3.40;;;20.00;96.30;;;;;;4973602;28;20421;-76
2022/06/08 04:46:19;;;;;;;4.03;3.43;;;18.80;96.30;;;;;;4973290;28;20186;-76
2022/06/08 04:48:46;;;;;;;4.53;3.83;;;18.20;96.30;;;;;;4973024;28;20421;-76
2022/06/08 04:51:13;;;;;;;13.00;6.13;;;17.80;96.30;;;;;;4973313;28;20681;-75
2022/06/08 04:53:40;;;;;;;6.00;5.30;;;17.60;96.30;;;;;;4973292;28;20457;-76
2022/06/08 04:56:06;;;;;;;7.30;4.10;;;17.40;96.30;;;;;;4971595;28;20425;-76
2022/06/08 04:58:32;;;;;;;5.33;4.37;;;17.40;96.30;;;;;;4967793;28;20440;-75
2022/06/08 05:00:58;;;;;;;2.67;2.27;;;17.30;96.30;;;;;;4971865;28;20544;-74
2022/06/08 05:03:24;;;;;;;3.90;3.50;;;17.40;96.30;;;;;;4972088;28;20920;-73
2022/06/08 05:05:50;;;;;;;5.77;4.20;;;17.00;96.30;;;;;;4972688;28;20190;-73
2022/06/08 05:08:17;;;;;;;3.90;3.23;;;17.00;96.30;;;;;;4972571;28;20526;-75
2022/06/08 05:10:43;;;;;;;6.87;3.00;;;16.90;96.30;;;;;;4964970;28;20209;-76
2022/06/08 05:13:10;;;;;;;4.47;2.80;;;16.70;96.30;;;;;;4973004;28;20477;-77
2022/06/08 05:15:38;;;;;;;2.13;1.40;;;16.80;96.30;;;;;;4972979;28;20464;-75
2022/06/08 05:18:05;;;;;;;4.37;3.33;;;16.90;96.30;;;;;;4972513;28;20832;-74
2022/06/08 05:20:31;;;;;;;3.90;3.60;;;17.00;96.30;;;;;;4972950;28;20961;-76
2022/06/08 05:22:56;;;;;;;3.40;3.10;;;18.10;96.30;;;;;;4972920;28;20839;-76
2022/06/08 05:25:29;;;;;;;6.73;2.90;;;19.50;96.30;;;;;;4972931;28;20504;-76
2022/06/08 05:27:55;;;;;;;2.10;1.93;;;20.30;96.30;;;;;;4972527;28;20182;-76
2022/06/08 05:30:21;;;;;;;1.20;1.07;;;21.10;96.30;;;;;;4972976;28;20436;-76
2022/06/08 05:32:46;;;;;;;1.47;0.80;;;22.50;95.20;;;;;;4972931;28;20261;-77
2022/06/08 05:35:13;;;;;;;2.93;1.00;;;23.40;91.30;;;;;;4973141;28;20496;-76
2022/06/08 05:37:38;;;;;;;1.30;0.90;;;24.30;86.90;;;;;;4972087;28;20595;-77
2022/06/08 05:40:05;;;;;;;1.37;0.77;;;25.40;83.80;;;;;;4972698;28;20417;-77
2022/06/08 05:42:30;;;;;;;1.00;0.70;;;26.20;84.30;;;;;;4973002;28;20198;-76
2022/06/08 05:44:57;;;;;;;6.63;1.03;;;26.90;80.90;;;;;;4972881;28;20749;-77
2022/06/08 05:47:23;;;;;;;1.70;0.70;;;26.50;81.90;;;;;;4972809;28;20174;-77
2022/06/08 05:49:48;;;;;;;2.30;0.70;;;27.50;79.30;;;;;;4972762;28;20417;-77
2022/06/08 05:52:14;;;;;;;5.53;0.80;;;27.10;80.10;;;;;;4972897;28;20464;-77
2022/06/08 05:54:39;;;;;;;2.70;0.73;;;26.60;81.60;;;;;;4972817;28;20598;-77
2022/06/08 05:57:05;;;;;;;2.60;0.80;;;26.60;82.30;;;;;;4972911;28;20265;-77
2022/06/08 05:59:31;;;;;;;3.10;0.80;;;27.10;80.40;;;;;;4972587;28;20186;-77
2022/06/08 06:01:56;;;;;;;1.70;0.90;;;27.30;79.70;;;;;;4955466;28;20796;-77
2022/06/08 06:04:22;;;;;;;1.40;0.90;;;27.40;79.50;;;;;;4955410;28;20190;-77
2022/06/08 06:06:48;;;;;;;2.57;1.10;;;26.70;80.70;;;;;;4972829;28;20182;-77
2022/06/08 06:09:15;;;;;;;1.07;0.80;;;26.80;81.20;;;;;;4962525;28;20189;-77
2022/06/08 06:11:41;;;;;;;1.33;1.00;;;26.80;80.20;;;;;;4956955;28;20257;-77
2022/06/08 06:14:08;;;;;;;1.30;0.80;;;27.60;80.50;;;;;;4957008;29;20466;-77
2022/06/08 06:16:34;;;;;;;1.60;1.00;;;28.00;78.10;;;;;;4956890;29;20174;-77
2022/06/08 06:18:59;;;;;;;1.33;0.87;;;27.90;77.30;;;;;;4956614;29;20417;-78
2022/06/08 06:21:25;;;;;;;1.57;0.70;;;27.90;80.20;;;;;;4956835;28;20208;-77
2022/06/08 06:23:55;;;;;;;1.07;0.70;;;27.10;79.40;;;;;;4955802;29;20174;-77
2022/06/08 06:26:20;;;;;;;4.50;0.90;;;27.30;81.30;;;;;;4956841;29;20229;-77
2022/06/08 06:28:47;;;;;;;1.63;0.90;;;27.60;78.40;;;;;;4956608;29;20414;-77
2022/06/08 06:31:23;;;;;;;3.67;0.93;;;27.20;80.90;;;;;;4939490;29;20206;-77
2022/06/08 06:33:49;;;;;;;8.33;0.93;;;27.60;80.40;;;;;;4957854;29;20502;-78
2022/06/08 06:36:15;;;;;;;2.00;1.00;;;28.20;79.50;;;;;;4957609;29;20446;-77
2022/06/08 06:38:40;;;;;;;2.30;0.80;;;27.90;79.00;;;;;;4957513;29;20178;-77
2022/06/08 06:41:06;;;;;;;1.20;0.80;;;28.70;77.70;;;;;;4958994;28;20205;-78
2022/06/08 06:43:32;;;;;;;1.20;0.80;;;28.70;77.10;;;;;;4959131;29;20182;-78
2022/06/08 06:45:58;;;;;;;6.50;0.83;;;29.10;74.50;;;;;;4959123;29;20186;-78
2022/06/08 06:48:24;;;;;;;1.70;0.90;;;29.40;76.00;;;;;;4958658;29;20206;-78
2022/06/08 06:50:50;;;;;;;1.40;0.80;;;29.90;74.20;;;;;;4958622;28;20220;-78
2022/06/08 06:53:15;;;;;;;1.35;0.80;;;30.10;74.50;;;;;;4958473;29;20194;-78
2022/06/08 06:55:41;;;;;;;2.27;1.03;;;30.00;71.80;;;;;;4957768;29;20193;-78
2022/06/08 06:58:06;;;;;;;1.77;0.80;;;29.70;74.50;;;;;;4957491;29;20174;-78
2022/06/08 07:00:33;;;;;;;2.40;0.80;;;29.40;71.90;;;;;;4939898;28;20194;-78
2022/06/08 07:02:59;;;;;;;1.60;0.80;;;29.00;72.40;;;;;;4957405;29;20174;-78
2022/06/08 07:05:29;;;;;;;1.47;0.93;;;29.20;75.10;;;;;;4939979;29;20468;-78
2022/06/08 07:07:54;;;;;;;1.10;0.67;;;29.80;72.80;;;;;;4956658;29;20208;-78
2022/06/08 07:10:20;;;;;;;1.37;0.90;;;30.20;74.10;;;;;;4956926;28;20934;-78
2022/06/08 07:12:46;;;;;;;1.50;0.87;;;30.20;71.80;;;;;;4957781;29;20171;-78
2022/06/08 07:15:14;;;;;;;2.05;0.80;;;30.40;71.90;;;;;;4958320;29;20201;-78
2022/06/08 07:17:40;;;;;;;1.50;0.82;;;31.20;70.60;;;;;;4958155;29;20709;-78
2022/06/08 07:20:07;;;;;;;2.95;0.80;;;31.20;73.90;;;;;;4957845;28;20178;-78
2022/06/08 07:22:32;;;;;;;2.55;0.75;;;31.90;73.70;;;;;;4940545;29;20678;-78
2022/06/08 07:24:58;;;;;;;4.10;0.60;;;32.10;70.10;;;;;;4958387;29;20189;-78
2022/06/08 07:27:23;;;;;;;1.30;0.77;;;31.10;70.80;;;;;;4957971;29;20658;-78
2022/06/08 07:29:50;;;;;;;1.42;0.70;;;30.60;72.70;;;;;;4966509;29;20186;-78
2022/06/08 07:32:15;;;;;;;1.43;0.80;;;29.40;73.90;;;;;;4965072;28;20266;-78
2022/06/08 07:34:41;;;;;;;3.37;0.90;;;27.90;75.20;;;;;;4959046;29;21056;-77
2022/06/08 07:37:07;;;;;;;1.60;0.80;;;27.30;78.80;;;;;;4955721;29;20175;-77
2022/06/08 07:39:32;;;;;;;1.90;0.90;;;27.80;79.50;;;;;;4955685;29;20174;-77
2022/06/08 07:41:58;;;;;;;3.43;0.70;;;26.80;78.70;;;;;;4938578;29;20210;-78
2022/06/08 07:44:23;;;;;;;4.53;0.70;;;26.90;79.80;;;;;;4955744;29;20234;-78
2022/06/08 07:46:49;;;;;;;1.00;0.70;;;27.50;79.10;;;;;;4955671;29;20174;-78
2022/06/08 07:52:05;;;;;;;1.20;0.70;;;28.70;76.30;;;;;;4956087;28;20209;-78
2022/06/08 07:54:30;;;;;;;2.93;0.63;;;29.80;77.40;;;;;;4938819;29;20467;-78
2022/06/08 07:56:57;;;;;;;2.73;0.83;;;30.60;73.00;;;;;;4956181;29;20865;-78
2022/06/08 07:59:26;;;;;;;1.00;0.80;;;29.10;75.00;;;;;;4937559;29;20596;-77
2022/06/08 08:01:52;;;;;;;2.70;0.60;;;27.10;78.40;;;;;;4954942;28;20839;-77
2022/06/08 08:04:17;;;;;;;1.53;0.80;;;26.30;84.00;;;;;;4955051;29;20406;-76
2022/06/08 08:06:43;;;;;;;3.67;0.70;;;26.80;81.00;;;;;;4955006;29;20308;-76
2022/06/08 08:09:17;;;;;;;2.00;0.80;;;25.70;83.90;;;;;;4954594;29;20264;-76
2022/06/08 08:11:43;;;;;;;1.67;0.70;;;25.10;85.20;;;;;;4954882;28;20207;-76
2022/06/08 08:14:09;;;;;;;1.03;0.70;;;25.50;86.70;;;;;;4954769;29;20601;-76
2022/06/08 08:16:34;;;;;;;1.93;0.77;;;25.50;85.90;;;;;;4954802;29;20434;-77
2022/06/08 08:19:00;;;;;;;4.53;0.80;;;26.70;84.40;;;;;;4954656;29;20205;-77
2022/06/08 08:21:25;;;;;;;1.77;0.80;;;27.90;81.20;;;;;;4954660;28;20195;-77
2022/06/08 08:23:51;;;;;;;1.37;0.80;;;28.00;78.00;;;;;;4954531;29;20182;-77
2022/06/08 08:26:17;;;;;;;1.23;0.80;;;28.40;78.30;;;;;;4954672;29;20174;-76
2022/06/08 08:28:42;;;;;;;2.43;1.27;;;28.80;77.90;;;;;;4954177;29;20554;-76
2022/06/08 08:31:08;;;;;;;2.10;1.00;;;29.30;78.10;;;;;;4954470;28;20198;-76
2022/06/08 08:33:33;;;;;;;1.97;0.80;;;29.10;76.70;;;;;;4954030;28;20795;-76
2022/06/08 08:35:59;;;;;;;4.93;0.93;;;28.20;76.80;;;;;;4954321;29;20174;-76
2022/06/08 08:38:24;;;;;;;3.73;0.80;;;27.50;76.30;;;;;;4954176;29;20178;-75
2022/06/08 08:40:56;;;;;;;29.30;1.83;;;26.90;78.10;;;;;;4954240;28;20198;-75
2022/06/08 08:43:26;;;;;;;4.63;1.00;;;26.20;77.40;;;;;;4969915;28;20662;-76
2022/06/08 08:46:23;;;;;;;5.00;1.10;;;25.50;81.20;;;;;;4972361;28;20409;-76
2022/06/08 08:48:53;;;;;;;2.20;1.00;;;24.50;81.50;;;;;;4937115;29;20448;-76
2022/06/08 08:51:42;;;;;;;1.00;0.77;;;24.50;86.10;;;;;;4953995;28;20439;-75
2022/06/08 08:54:15;;;;;;;1.60;0.70;;;24.10;89.00;;;;;;4954058;29;20472;-76
2022/06/08 08:56:42;;;;;;;1.30;0.80;;;23.40;87.80;;;;;;4954040;29;20807;-76
2022/06/08 08:59:21;;;;;;;4.70;0.80;;;23.20;89.20;;;;;;4953784;29;20418;-75
2022/06/08 09:01:52;;;;;;;3.47;0.70;;;22.50;91.20;;;;;;4968527;28;20515;-76
2022/06/08 09:04:24;;;;;;;0.90;0.70;;;22.60;92.70;;;;;;4973407;28;20898;-75
2022/06/08 09:06:50;;;;;;;3.93;0.73;;;23.30;94.60;;;;;;4955753;28;20430;-76
2022/06/08 09:09:21;;;;;;;1.93;0.83;;;24.10;85.80;;;;;;4973094;28;20504;-76
2022/06/08 09:11:47;;;;;;;1.17;0.70;;;24.30;84.80;;;;;;4973108;28;20206;-75
2022/06/08 09:14:22;;;;;;;1.10;0.70;;;24.10;85.30;;;;;;4973130;28;20463;-76
2022/06/08 09:16:50;;;;;;;2.10;0.80;;;23.90;83.50;;;;;;4973229;28;20406;-74
2022/06/08 09:19:24;;;;;;;1.20;0.70;;;23.80;85.40;;;;;;4972880;28;20480;-75
2022/06/08 09:22:13;;;;;;;2.67;0.87;;;23.70;87.90;;;;;;4973097;28;20788;-74
2022/06/08 09:25:19;;;;;;;2.63;0.90;;;23.40;88.70;;;;;;4940394;28;20922;-74
2022/06/08 09:27:50;;;;;;;3.10;0.90;;;22.60;89.80;;;;;;4956169;28;20471;-74
2022/06/08 09:30:20;;;;;;;5.07;0.97;;;22.40;91.10;;;;;;4973233;28;20416;-75
2022/06/08 09:32:49;;;;;;;2.63;1.20;;;22.40;90.80;;;;;;4955628;28;20461;-75
2022/06/08 09:35:23;;;;;;;1.50;0.70;;;22.80;89.40;;;;;;4973078;28;20421;-75
2022/06/08 09:37:52;;;;;;;1.73;0.70;;;22.90;86.00;;;;;;4961855;28;20944;-75
2022/06/08 09:40:38;;;;;;;1.73;0.70;;;22.80;86.90;;;;;;4953733;28;20417;-75
2022/06/08 09:43:40;;;;;;;1.30;0.90;;;22.80;87.70;;;;;;4953397;28;20425;-75
2022/06/08 09:46:24;;;;;;;1.40;0.80;;;22.70;87.70;;;;;;4957358;29;20548;-74
2022/06/08 09:52:47;;;;;;;1.30;0.83;;;22.40;90.50;;;;;;4916909;29;20538;-75
2022/06/08 09:55:35;;;;;;;5.63;0.90;;;22.20;90.60;;;;;;4916855;29;20944;-75
2022/06/08 09:58:33;;;;;;;2.83;1.07;;;21.90;92.90;;;;;;4953938;29;20468;-75
2022/06/08 10:01:32;;;;;;;1.47;0.80;;;22.10;92.00;;;;;;4957077;28;20489;-74
2022/06/08 10:04:26;;;;;;;2.97;1.00;;;22.20;94.80;;;;;;4957104;29;20530;-75
2022/06/08 10:07:12;;;;;;;2.00;0.80;;;22.20;93.90;;;;;;4955940;29;20465;-75
2022/06/08 10:09:58;;;;;;;2.13;0.93;;;22.20;95.30;;;;;;4956705;29;20442;-75
2022/06/08 10:12:45;;;;;;;1.50;0.90;;;22.30;94.10;;;;;;4939709;29;20457;-75
2022/06/08 10:15:31;;;;;;;1.30;0.70;;;22.20;92.20;;;;;;4957291;29;20462;-75
2022/06/08 10:18:24;;;;;;;2.20;0.80;;;22.00;93.30;;;;;;4956924;29;20781;-75
2022/06/08 10:21:05;;;;;;;1.03;0.70;;;21.90;94.10;;;;;;4939079;29;20446;-75
2022/06/08 10:23:39;;;;;;;1.73;1.00;;;21.70;93.90;;;;;;4956778;29;20406;-76
2022/06/08 10:26:14;;;;;;;2.00;0.83;;;21.30;96.20;;;;;;4956764;29;20417;-75
2022/06/08 10:28:58;;;;;;;6.03;0.87;;;21.10;96.30;;;;;;4956607;29;20406;-75
2022/06/08 10:31:37;;;;;;;4.17;0.80;;;20.90;96.30;;;;;;4956406;28;20438;-75
2022/06/08 10:34:17;;;;;;;3.80;0.83;;;21.30;96.30;;;;;;4958691;28;20549;-76
2022/06/08 10:36:46;;;;;;;3.73;0.70;;;22.10;96.30;;;;;;4948200;28;20425;-76
2022/06/08 10:39:13;;;;;;;1.50;0.80;;;23.10;94.00;;;;;;4964286;28;20422;-76
2022/06/08 10:44:37;;;;;;;8.00;0.80;;;24.30;93.40;;;;;;4965122;28;20490;-75
2022/06/08 10:47:33;;;;;;;1.63;0.90;;;24.80;88.90;;;;;;4970658;28;20917;-76
2022/06/08 10:50:01;;;;;;;1.53;0.87;;;24.50;86.90;;;;;;4973817;28;20434;-75
2022/06/08 10:52:43;;;;;;;1.70;0.80;;;23.70;90.00;;;;;;4975509;28;20433;-77
2022/06/08 10:55:14;;;;;;;2.60;0.90;;;23.30;89.80;;;;;;4971430;28;20465;-78
2022/06/08 10:57:52;;;;;;;1.27;0.80;;;22.90;90.10;;;;;;4958269;28;20425;-77
2022/06/08 11:00:24;;;;;;;1.67;0.80;;;23.30;89.30;;;;;;4958503;28;20806;-78
2022/06/08 11:02:59;;;;;;;0.90;0.70;;;23.50;88.10;;;;;;4975704;28;20452;-77
2022/06/08 11:05:30;;;;;;;2.87;0.80;;;23.90;86.70;;;;;;4974904;28;20428;-78
2022/06/08 11:08:14;;;;;;;4.43;0.90;;;24.40;87.00;;;;;;4969342;28;21209;-77
2022/06/08 11:10:50;;;;;;;2.13;0.80;;;24.20;87.10;;;;;;4956773;28;20439;-77
2022/06/08 11:13:22;;;;;;;1.20;0.73;;;23.90;86.60;;;;;;4938592;29;21059;-77
2022/06/08 11:16:05;;;;;;;3.60;0.80;;;23.90;88.80;;;;;;4955949;29;20414;-78
2022/06/08 11:18:45;;;;;;;1.93;0.67;;;23.40;87.20;;;;;;4938532;29;20427;-77
2022/06/08 11:21:14;;;;;;;1.07;0.70;;;23.00;89.60;;;;;;4955654;29;20493;-77
2022/06/08 11:24:05;;;;;;;1.03;0.70;;;22.70;92.50;;;;;;4958422;29;20450;-78
2022/06/08 11:26:36;;;;;;;3.43;0.80;;;23.00;93.00;;;;;;4957417;29;20923;-78
2022/06/08 11:29:17;;;;;;;1.43;0.90;;;22.90;90.90;;;;;;4968660;28;20476;-77
2022/06/08 11:31:43;;;;;;;1.37;0.70;;;23.20;92.90;;;;;;4971476;28;20438;-78
2022/06/08 11:34:20;;;;;;;1.50;0.70;;;23.20;92.40;;;;;;4968982;28;20484;-78
2022/06/08 11:37:17;;;;;;;1.03;0.70;;;23.50;92.10;;;;;;4971054;28;20170;-78
2022/06/08 11:39:54;;;;;;;1.60;0.80;;;23.60;89.60;;;;;;4955168;29;20407;-78
2022/06/08 11:42:24;;;;;;;1.20;0.77;;;23.70;89.30;;;;;;4958180;28;20481;-78
2022/06/08 11:45:15;;;;;;;2.83;0.87;;;23.50;88.50;;;;;;4955786;29;20814;-78
2022/06/08 11:48:00;;;;;;;4.40;0.77;;;23.10;92.50;;;;;;4951596;28;20463;-77
2022/06/08 11:50:31;;;;;;;1.20;0.83;;;23.00;91.80;;;;;;4955166;28;20447;-79
2022/06/08 11:53:03;;;;;;;1.77;1.10;;;22.80;90.30;;;;;;4955204;29;20410;-78
2022/06/08 11:55:34;;;;;;;3.67;1.10;;;22.90;92.30;;;;;;4955298;29;20776;-78
2022/06/08 11:58:05;;;;;;;1.63;0.97;;;23.10;92.10;;;;;;4955427;29;20422;-78
2022/06/08 12:00:53;;;;;;;14.73;1.00;;;23.10;91.80;;;;;;4954874;28;20407;-77
2022/06/08 12:03:28;;;;;;;3.30;1.17;;;22.90;91.70;;;;;;4955021;29;20418;-77
2022/06/08 12:06:09;;;;;;;1.70;0.90;;;22.70;92.10;;;;;;4937960;29;20828;-77
2022/06/08 12:08:42;;;;;;;11.60;1.10;;;22.50;92.50;;;;;;4954010;29;21123;-77
2022/06/08 12:11:13;;;;;;;2.13;1.40;;;22.30;93.40;;;;;;4954890;28;20449;-78
2022/06/08 12:13:40;;;;;;;7.43;1.10;;;22.10;95.80;;;;;;4954838;29;20465;-77
2022/06/08 12:16:29;;;;;;;6.40;1.40;;;22.40;96.00;;;;;;4954991;28;20410;-77
2022/06/08 12:19:14;;;;;;;2.83;0.90;;;22.60;94.40;;;;;;4942912;28;20446;-78
2022/06/08 12:21:46;;;;;;;2.03;1.10;;;22.50;91.30;;;;;;4954541;29;20522;-77
2022/06/08 12:24:11;;;;;;;3.70;1.00;;;22.30;93.70;;;;;;4954564;29;20429;-77
2022/06/08 12:27:03;;;;;;;1.37;0.80;;;22.40;91.90;;;;;;4953769;29;20422;-78
2022/06/08 12:29:38;;;;;;;2.97;1.10;;;22.60;94.30;;;;;;4954334;29;20229;-78
2022/06/08 12:32:06;;;;;;;2.23;1.20;;;22.90;93.90;;;;;;4954643;29;20557;-78
2022/06/08 12:34:49;;;;;;;1.43;1.00;;;23.20;92.20;;;;;;4937995;29;20553;-78
2022/06/08 12:37:25;;;;;;;4.03;1.40;;;23.60;89.90;;;;;;4961393;28;20413;-78
2022/06/08 12:39:52;;;;;;;1.23;1.07;;;23.90;91.10;;;;;;4974457;28;20409;-78
2022/06/08 12:42:29;;;;;;;2.57;1.10;;;24.50;87.40;;;;;;4974542;28;20437;-78
2022/06/08 12:44:56;;;;;;;4.23;0.90;;;24.50;85.90;;;;;;4974810;28;20417;-78
2022/06/08 12:47:26;;;;;;;4.50;1.00;;;24.60;87.70;;;;;;4973751;28;20425;-78
2022/06/08 12:50:10;;;;;;;1.93;1.00;;;24.80;86.50;;;;;;4973508;28;20421;-78
2022/06/08 12:52:36;;;;;;;4.03;0.97;;;25.70;85.40;;;;;;4973466;28;20437;-78
2022/06/08 12:55:09;;;;;;;2.70;0.90;;;26.40;80.60;;;;;;4973260;28;20822;-78
2022/06/08 12:57:35;;;;;;;1.63;1.00;;;26.50;81.00;;;;;;4973277;28;20244;-78
2022/06/08 13:00:07;;;;;;;2.47;1.10;;;26.40;79.50;;;;;;4973642;28;20417;-78
2022/06/08 13:02:37;;;;;;;2.20;1.10;;;25.60;83.20;;;;;;4956001;28;20228;-78
2022/06/08 13:05:07;;;;;;;2.50;1.00;;;25.40;80.70;;;;;;4973350;28;20453;-78
2022/06/08 13:07:34;;;;;;;1.83;0.90;;;25.00;81.10;;;;;;4973173;28;20425;-77
2022/06/08 13:10:01;;;;;;;1.97;0.90;;;25.10;82.70;;;;;;4973423;28;20456;-77
2022/06/08 13:12:32;;;;;;;1.30;0.80;;;25.30;84.60;;;;;;4973722;28;20445;-78
2022/06/08 13:14:58;;;;;;;2.67;0.83;;;25.00;83.30;;;;;;4973421;28;20456;-77
2022/06/08 13:17:28;;;;;;;1.70;1.13;;;24.70;83.20;;;;;;4973906;28;20441;-77
2022/06/08 13:19:57;;;;;;;3.00;1.00;;;24.40;84.90;;;;;;4977101;28;20409;-77
2022/06/08 13:22:25;;;;;;;3.80;0.83;;;24.70;85.50;;;;;;4977102;28;20828;-75
2022/06/08 13:24:52;;;;;;;1.33;0.93;;;24.90;84.00;;;;;;4977280;28;20496;-77
2022/06/08 13:27:18;;;;;;;2.33;1.20;;;24.20;83.90;;;;;;4977102;28;20498;-76
2022/06/08 13:29:43;;;;;;;3.50;0.90;;;25.00;82.50;;;;;;4977013;28;20763;-75
2022/06/08 13:32:15;;;;;;;2.50;1.00;;;24.90;81.00;;;;;;4962571;28;20610;-77
2022/06/08 13:34:40;;;;;;;2.83;1.00;;;25.10;83.20;;;;;;4960362;28;20292;-77
2022/06/08 13:37:28;;;;;;;5.40;0.87;;;24.20;84.20;;;;;;4940263;29;20877;-77
2022/06/08 13:39:55;;;;;;;3.13;0.80;;;24.70;83.60;;;;;;4957562;29;20175;-77
2022/06/08 13:42:22;;;;;;;4.53;1.10;;;25.20;82.60;;;;;;4975388;28;20437;-76
2022/06/08 13:44:51;;;;;;;2.70;1.40;;;25.20;83.10;;;;;;4976656;28;21013;-76
2022/06/08 13:47:21;;;;;;;2.10;1.20;;;24.70;83.00;;;;;;4976707;28;20424;-76
2022/06/08 13:49:52;;;;;;;2.40;0.93;;;24.10;85.40;;;;;;4972712;28;20925;-76
2022/06/08 13:52:21;;;;;;;1.30;0.90;;;24.00;85.30;;;;;;4961865;28;20529;-75
2022/06/08 13:54:52;;;;;;;1.00;0.90;;;23.80;84.90;;;;;;4956892;29;20501;-76
2022/06/08 13:57:20;;;;;;;2.33;0.80;;;23.30;86.90;;;;;;4962092;28;20512;-78
2022/06/08 13:59:47;;;;;;;1.30;0.80;;;23.50;87.00;;;;;;4961885;28;20897;-77
2022/06/08 14:02:23;;;;;;;6.83;1.13;;;23.60;86.60;;;;;;4949604;28;20454;-77
2022/06/08 14:04:51;;;;;;;2.07;0.87;;;23.80;86.10;;;;;;4950501;28;20942;-77
2022/06/08 14:13:13;;;;;;;3.83;1.30;;;24.90;83.20;;;;;;4965962;28;20481;-77
2022/06/08 14:15:41;;;;;;;2.70;0.70;;;25.50;82.80;;;;;;4967386;28;20496;-77
2022/06/08 14:18:06;;;;;;;1.00;0.70;;;25.90;80.00;;;;;;4962362;28;20436;-77
2022/06/08 14:20:38;;;;;;;1.10;0.70;;;26.20;78.20;;;;;;4956659;29;20910;-77
2022/06/08 14:23:06;;;;;;;3.53;0.80;;;26.00;79.80;;;;;;4966617;28;20265;-78
2022/06/08 14:25:32;;;;;;;10.63;0.80;;;25.80;80.80;;;;;;4975867;28;20755;-77
2022/06/08 14:27:58;;;;;;;1.77;0.90;;;25.90;81.10;;;;;;4966605;28;20982;-77
2022/06/08 14:30:23;;;;;;;1.43;0.80;;;25.90;80.40;;;;;;4963941;28;20514;-78
2022/06/08 14:32:53;;;;;;;3.37;0.90;;;25.90;81.10;;;;;;4957979;28;20630;-77
2022/06/08 14:35:41;;;;;;;2.03;0.90;;;25.60;81.80;;;;;;4960242;28;20261;-78
2022/06/08 14:38:20;;;;;;;1.90;1.10;;;25.20;82.60;;;;;;4902052;29;20464;-76
2022/06/08 14:40:46;;;;;;;1.20;0.80;;;25.20;83.60;;;;;;4882348;29;20825;-78
2022/06/08 14:43:12;;;;;;;2.90;0.80;;;24.80;83.40;;;;;;4899156;29;20489;-78
2022/06/08 14:45:39;;;;;;;1.10;0.90;;;24.10;84.20;;;;;;4898483;29;20429;-76
2022/06/08 14:48:42;;;;;;;1.30;1.00;;;23.90;85.70;;;;;;4883285;29;20422;-76
2022/06/08 14:51:12;;;;;;;2.03;0.90;;;23.80;85.20;;;;;;4868265;29;20446;-76
2022/06/08 14:53:37;;;;;;;10.13;1.17;;;24.20;85.10;;;;;;4880331;29;20556;-74
2022/06/08 14:59:23;;;;;;;2.57;0.80;;;24.10;83.40;;;;;;4893982;29;20196;-75
2022/06/08 15:01:51;;;;;;;1.10;0.90;;;23.90;84.10;;;;;;4899004;29;20437;-77
2022/06/08 15:04:20;;;;;;;1.73;1.00;;;23.90;87.10;;;;;;4899049;29;20516;-76
2022/06/08 15:06:47;;;;;;;4.10;0.90;;;24.40;84.30;;;;;;4897397;29;20975;-81
2022/06/08 15:09:13;;;;;;;2.37;1.03;;;24.70;83.20;;;;;;4879564;29;20439;-76
2022/06/08 15:11:59;;;;;;;1.63;0.80;;;25.00;82.30;;;;;;4863552;29;20494;-76
2022/06/08 15:14:47;;;;;;;1.10;0.70;;;24.60;82.70;;;;;;4880066;29;20276;-75
2022/06/08 15:17:21;;;;;;;1.77;0.80;;;24.90;85.70;;;;;;4880089;29;20413;-76
2022/06/08 15:19:54;;;;;;;2.70;0.80;;;25.20;82.00;;;;;;4863325;29;20961;-75
2022/06/08 15:22:22;;;;;;;1.67;0.83;;;25.80;80.90;;;;;;4880057;29;20434;-75
2022/06/08 15:24:49;;;;;;;2.20;0.73;;;26.00;80.70;;;;;;4879980;29;20520;-77
2022/06/08 15:27:17;;;;;;;1.10;0.70;;;26.20;75.70;;;;;;4880119;29;20426;-77
2022/06/08 15:29:42;;;;;;;1.20;0.83;;;26.10;77.70;;;;;;4879920;29;20453;-76
2022/06/08 15:32:14;;;;;;;1.53;0.90;;;25.80;76.20;;;;;;4879831;29;20529;-76
2022/06/08 15:34:41;;;;;;;6.17;1.00;;;25.40;77.40;;;;;;4879815;29;20244;-76
2022/06/08 15:37:17;;;;;;;1.73;0.90;;;25.10;78.40;;;;;;4879551;29;20441;-78
2022/06/08 15:39:43;;;;;;;2.33;0.80;;;25.10;74.80;;;;;;4879524;29;20497;-78
2022/06/08 15:42:10;;;;;;;2.50;0.90;;;25.00;75.40;;;;;;4869488;29;20497;-77
2022/06/08 15:44:36;;;;;;;2.70;0.90;;;25.00;75.80;;;;;;4897860;29;20180;-76
2022/06/08 15:47:06;;;;;;;2.17;1.00;;;25.30;76.40;;;;;;4898190;29;20417;-77
2022/06/08 15:49:35;;;;;;;2.60;1.03;;;25.00;76.60;;;;;;4897912;29;20515;-78
2022/06/08 15:52:05;;;;;;;1.10;0.70;;;24.80;76.00;;;;;;4898119;29;20515;-77
2022/06/08 15:54:36;;;;;;;1.70;0.80;;;24.60;76.30;;;;;;4881161;29;20504;-77
2022/06/08 15:57:04;;;;;;;3.67;1.00;;;24.20;76.10;;;;;;4898239;29;20417;-77
2022/06/08 16:00:05;;;;;;;1.87;0.80;;;24.50;77.10;;;;;;4896270;29;20439;-77
2022/06/08 16:02:30;;;;;;;3.00;1.07;;;24.60;76.10;;;;;;4880895;29;20445;-78
2022/06/08 16:04:56;;;;;;;1.97;0.97;;;24.30;78.00;;;;;;4897967;29;20437;-78
2022/06/08 16:07:22;;;;;;;3.07;1.10;;;24.30;77.40;;;;;;4881247;29;20629;-77
2022/06/08 16:09:47;;;;;;;2.07;0.90;;;24.20;77.00;;;;;;4898654;29;20172;-77
2022/06/08 16:12:13;;;;;;;3.53;0.93;;;24.00;78.50;;;;;;4881891;29;20299;-77
2022/06/08 16:14:40;;;;;;;3.40;0.90;;;23.90;78.60;;;;;;4897974;29;20519;-77
2022/06/08 16:17:07;;;;;;;3.70;0.80;;;23.80;79.40;;;;;;4897699;29;20184;-78
2022/06/08 16:19:33;;;;;;;2.57;1.10;;;23.70;79.70;;;;;;4898153;29;20472;-78
2022/06/08 16:33:17;;;;;;;2.23;0.97;;;22.80;81.90;;;;;;4934091;29;20541;-81
2022/06/08 16:35:44;;;;;;;1.80;0.80;;;22.70;81.40;;;;;;4918200;29;20433;-78
2022/06/08 16:38:10;;;;;;;1.30;0.80;;;22.60;81.30;;;;;;4934386;29;20428;-79
2022/06/08 16:40:39;;;;;;;4.80;0.90;;;22.60;82.00;;;;;;4935372;29;20488;-79
2022/06/08 16:43:07;;;;;;;4.80;1.00;;;22.60;81.60;;;;;;4935369;29;20411;-78
2022/06/08 16:45:33;;;;;;;2.00;0.80;;;22.60;83.40;;;;;;4935465;29;20479;-79
2022/06/08 16:48:03;;;;;;;2.30;0.70;;;22.60;83.50;;;;;;4935118;29;20451;-79
2022/06/08 16:50:29;;;;;;;1.10;0.80;;;22.60;83.90;;;;;;4898167;29;20432;-79
2022/06/08 16:52:55;;;;;;;3.93;1.00;;;22.60;83.80;;;;;;4898327;29;20990;-78
2022/06/08 16:55:21;;;;;;;1.87;0.80;;;22.60;84.20;;;;;;4881447;29;20470;-78
2022/06/08 17:00:32;;;;;;;1.00;0.87;;;22.40;83.40;;;;;;4905258;29;20216;-78
2022/06/08 17:02:58;;;;;;;3.00;0.90;;;22.30;83.90;;;;;;4905341;29;20439;-77
2022/06/08 17:05:23;;;;;;;0.90;0.70;;;22.30;84.70;;;;;;4904172;29;20959;-77
2022/06/08 17:07:50;;;;;;;1.73;1.00;;;22.50;86.20;;;;;;4913733;29;20188;-77
2022/06/08 17:10:16;;;;;;;2.33;1.00;;;22.90;87.80;;;;;;4894267;29;20203;-77
2022/06/08 17:12:41;;;;;;;1.87;1.00;;;23.00;87.80;;;;;;4905955;29;20456;-78
2022/06/08 17:15:08;;;;;;;1.27;0.87;;;23.10;88.10;;;;;;4891097;29;20690;-76
2022/06/08 17:17:35;;;;;;;3.20;1.10;;;23.10;86.90;;;;;;4915389;29;20649;-76
2022/06/08 17:20:03;;;;;;;10.10;1.13;;;23.00;87.90;;;;;;4914967;29;20412;-76
2022/06/08 17:22:30;;;;;;;1.80;0.80;;;23.00;90.80;;;;;;4915710;29;20432;-76
2022/06/08 17:24:55;;;;;;;1.30;0.90;;;22.90;84.60;;;;;;4915699;29;20491;-76
2022/06/08 17:27:21;;;;;;;3.70;0.83;;;22.80;85.90;;;;;;4915031;29;20511;-76
2022/06/08 17:29:47;;;;;;;2.40;1.10;;;22.70;91.10;;;;;;4906721;29;20180;-76
2022/06/08 17:32:13;;;;;;;1.90;1.20;;;22.60;87.90;;;;;;4914489;29;20204;-77
2022/06/08 17:34:40;;;;;;;7.57;0.90;;;22.40;86.90;;;;;;4904033;29;20878;-77
2022/06/08 17:37:06;;;;;;;2.27;0.90;;;22.30;87.30;;;;;;4911999;29;20248;-77